Time;durP1;ratioP1;P1;durP2;ratioP2;P2;SDS_P1;SDS_P2;PMS_P1;PMS_P2;Temp;Humidity;BMP_temperature;BMP_pressure;BME280_temperature;BME280_humidity;BME280_pressure;Samples;Min_cycle;Max_cycle;Signal;HPM_P1;HPM_P2
2023/01/06 00:00:37;;;;;;;14.93;13.93;;;8.10;99.90;;;;;;5060945;28;20209;-49
2023/01/06 00:03:03;;;;;;;13.90;13.10;;;8.10;99.90;;;;;;5060096;28;20200;-48
2023/01/06 00:05:29;;;;;;;15.50;14.47;;;8.00;99.90;;;;;;5045218;28;20432;-45
2023/01/06 00:07:55;;;;;;;14.40;13.40;;;8.00;99.90;;;;;;5058096;28;20415;-45
2023/01/06 00:10:21;;;;;;;14.63;13.63;;;8.00;99.90;;;;;;5059837;28;20455;-46
2023/01/06 00:12:48;;;;;;;13.83;12.93;;;7.90;99.90;;;;;;5054129;28;20437;-50
2023/01/06 00:15:15;;;;;;;14.57;13.53;;;7.90;99.90;;;;;;5056312;28;21138;-48
2023/01/06 00:17:41;;;;;;;13.60;12.67;;;7.90;99.90;;;;;;5044687;28;20467;-46
2023/01/06 00:20:08;;;;;;;13.13;12.33;;;7.90;99.90;;;;;;5049837;28;20860;-46
2023/01/06 00:22:34;;;;;;;14.60;13.63;;;7.90;99.90;;;;;;5053545;28;20440;-48
2023/01/06 00:25:00;;;;;;;13.87;12.87;;;7.90;99.90;;;;;;5050844;28;20471;-48
2023/01/06 00:27:25;;;;;;;13.83;12.83;;;7.90;99.90;;;;;;5048450;28;20251;-49
2023/01/06 00:29:51;;;;;;;14.23;13.33;;;7.90;99.90;;;;;;5048706;28;20231;-45
2023/01/06 00:32:18;;;;;;;13.30;12.40;;;7.80;99.90;;;;;;5050154;28;20196;-46
2023/01/06 00:34:44;;;;;;;13.73;12.80;;;7.70;99.90;;;;;;5048433;28;20185;-47
2023/01/06 00:37:10;;;;;;;14.63;13.53;;;7.70;99.90;;;;;;5043936;28;20441;-51
2023/01/06 00:39:35;;;;;;;14.40;13.40;;;7.70;99.90;;;;;;5043060;28;20261;-51
2023/01/06 00:42:05;;;;;;;13.50;12.60;;;7.70;99.90;;;;;;5047603;28;20185;-48
2023/01/06 00:44:36;;;;;;;13.60;12.60;;;7.80;99.90;;;;;;5041088;28;20681;-45
2023/01/06 00:47:05;;;;;;;14.80;13.80;;;7.80;99.90;;;;;;5038727;28;20464;-46
2023/01/06 00:49:31;;;;;;;13.90;13.00;;;7.80;99.90;;;;;;5044276;28;20428;-44
2023/01/06 00:51:56;;;;;;;14.70;13.50;;;7.80;99.90;;;;;;5053304;28;20922;-47
2023/01/06 00:54:22;;;;;;;14.30;13.10;;;7.80;99.90;;;;;;5057854;28;20182;-49
2023/01/06 00:56:50;;;;;;;14.70;13.60;;;7.80;99.90;;;;;;5053640;28;20190;-48
2023/01/06 00:59:19;;;;;;;14.20;13.30;;;7.80;99.90;;;;;;5041683;28;20292;-45
2023/01/06 01:01:46;;;;;;;14.63;13.53;;;7.90;99.90;;;;;;5060122;28;20412;-44
2023/01/06 01:04:11;;;;;;;14.37;13.27;;;7.90;99.90;;;;;;5059952;28;20431;-44
2023/01/06 01:06:38;;;;;;;14.50;13.50;;;7.80;99.90;;;;;;5055502;28;20435;-47
2023/01/06 01:09:05;;;;;;;14.87;13.77;;;7.80;99.90;;;;;;5054299;28;20204;-46
2023/01/06 01:14:17;;;;;;;13.97;12.97;;;7.80;99.90;;;;;;5056849;28;20417;-48
2023/01/06 01:16:43;;;;;;;12.83;12.07;;;7.80;99.90;;;;;;5039551;28;20455;-46
2023/01/06 01:19:10;;;;;;;14.53;13.27;;;7.80;99.90;;;;;;5039542;28;20468;-45
2023/01/06 01:21:36;;;;;;;13.33;12.33;;;7.80;99.90;;;;;;5063272;28;20439;-45
2023/01/06 01:24:01;;;;;;;14.30;13.00;;;7.80;99.90;;;;;;5053151;28;21226;-45
2023/01/06 01:26:27;;;;;;;12.90;12.03;;;7.80;99.90;;;;;;5067729;28;20620;-44
2023/01/06 01:28:52;;;;;;;13.87;12.83;;;7.80;99.90;;;;;;5046103;28;20182;-45
2023/01/06 01:31:19;;;;;;;14.03;13.13;;;7.80;99.90;;;;;;5053081;28;20224;-45
2023/01/06 01:33:45;;;;;;;14.03;13.00;;;7.70;99.90;;;;;;5051118;28;20192;-46
2023/01/06 01:36:13;;;;;;;14.60;13.60;;;7.80;99.90;;;;;;5044141;28;20432;-48
2023/01/06 01:38:39;;;;;;;13.50;12.67;;;7.70;99.90;;;;;;5047264;28;20583;-44
2023/01/06 01:41:05;;;;;;;13.53;12.50;;;7.70;99.90;;;;;;5049431;28;20511;-44
2023/01/06 01:43:49;;;;;;;13.40;12.50;;;7.70;99.90;;;;;;5054898;28;20210;-44
2023/01/06 01:46:27;;;;;;;13.80;12.80;;;7.70;99.90;;;;;;5053709;28;21544;-46
2023/01/06 01:48:56;;;;;;;13.83;12.70;;;7.70;99.90;;;;;;5043236;28;20440;-48
2023/01/06 01:51:29;;;;;;;13.10;12.20;;;7.70;99.90;;;;;;5047374;28;20434;-48
2023/01/06 01:53:58;;;;;;;13.47;12.57;;;7.70;99.90;;;;;;5043866;28;20922;-45
2023/01/06 01:56:28;;;;;;;13.67;12.70;;;7.70;99.90;;;;;;5053406;28;20429;-46
2023/01/06 01:58:59;;;;;;;13.67;12.67;;;7.70;99.90;;;;;;5048332;28;20470;-46
2023/01/06 02:01:25;;;;;;;12.57;11.57;;;7.60;99.90;;;;;;5048247;28;20435;-44
2023/01/06 02:03:51;;;;;;;14.03;12.90;;;7.60;99.90;;;;;;5036191;28;20477;-44
2023/01/06 02:06:21;;;;;;;13.97;12.97;;;7.60;99.90;;;;;;5060187;28;20525;-44
2023/01/06 02:09:04;;;;;;;12.70;11.90;;;7.60;99.90;;;;;;5051393;28;21533;-45
2023/01/06 02:11:32;;;;;;;13.53;12.50;;;7.60;99.90;;;;;;5051951;28;20449;-50
2023/01/06 02:14:11;;;;;;;13.90;12.67;;;7.60;99.90;;;;;;5053259;28;20922;-47
2023/01/06 02:17:07;;;;;;;12.70;11.80;;;7.60;99.90;;;;;;5051914;28;20528;-49
2023/01/06 02:19:42;;;;;;;13.13;12.10;;;7.60;99.90;;;;;;5051446;28;20446;-48
2023/01/06 02:22:20;;;;;;;12.20;11.40;;;7.50;99.90;;;;;;5047594;28;20458;-45
2023/01/06 02:25:03;;;;;;;12.73;11.40;;;7.60;99.90;;;;;;5049967;28;20475;-47
2023/01/06 02:27:45;;;;;;;12.23;11.20;;;7.50;99.90;;;;;;5046786;28;20443;-44
2023/01/06 02:30:13;;;;;;;12.63;11.53;;;7.50;99.90;;;;;;5031022;28;20446;-50
2023/01/06 02:32:53;;;;;;;12.67;11.47;;;7.50;99.90;;;;;;5033680;28;20821;-49
2023/01/06 02:35:25;;;;;;;12.87;11.97;;;7.50;99.90;;;;;;5044466;28;20447;-46
2023/01/06 02:38:02;;;;;;;13.50;12.20;;;7.50;99.90;;;;;;5050239;28;20537;-46
2023/01/06 02:40:46;;;;;;;12.10;11.27;;;7.50;99.90;;;;;;5042615;28;20439;-50
2023/01/06 02:43:49;;;;;;;12.63;11.73;;;7.40;99.90;;;;;;5051715;28;20433;-45
2023/01/06 02:46:34;;;;;;;12.80;12.00;;;7.40;99.90;;;;;;5055381;28;20434;-48
2023/01/06 02:49:09;;;;;;;13.17;12.17;;;7.30;99.90;;;;;;5044657;28;20494;-44
2023/01/06 02:51:57;;;;;;;12.53;11.67;;;7.30;99.90;;;;;;5052473;28;20445;-46
2023/01/06 02:54:39;;;;;;;12.50;11.67;;;7.20;99.90;;;;;;5047639;28;20439;-46
2023/01/06 02:57:17;;;;;;;13.38;12.10;;;7.10;99.90;;;;;;5050939;28;20538;-45
2023/01/06 03:00:07;;;;;;;12.80;11.90;;;7.00;99.90;;;;;;5049549;28;20180;-45
2023/01/06 03:02:35;;;;;;;13.00;12.02;;;7.10;99.90;;;;;;5055581;28;20444;-50
2023/01/06 03:05:03;;;;;;;12.50;11.70;;;7.10;99.90;;;;;;5050926;28;20187;-44
2023/01/06 03:07:31;;;;;;;12.93;11.82;;;7.10;99.90;;;;;;5033973;28;21475;-45
2023/01/06 03:10:00;;;;;;;12.63;11.53;;;7.10;99.90;;;;;;5033600;28;20207;-44
2023/01/06 03:12:55;;;;;;;11.57;10.77;;;7.20;99.90;;;;;;5043975;28;20435;-46
2023/01/06 03:15:23;;;;;;;14.83;12.47;;;7.20;99.90;;;;;;5054839;28;20959;-44
2023/01/06 03:17:49;;;;;;;12.50;11.47;;;7.20;99.90;;;;;;5047718;28;20465;-46
2023/01/06 03:20:15;;;;;;;12.50;11.43;;;7.20;99.90;;;;;;5046202;28;20450;-46
2023/01/06 03:22:42;;;;;;;11.70;10.70;;;7.20;99.90;;;;;;5056888;28;20980;-49
2023/01/06 03:25:08;;;;;;;11.77;10.83;;;7.20;99.90;;;;;;5045403;28;20480;-46
2023/01/06 03:27:34;;;;;;;11.80;10.90;;;7.30;99.90;;;;;;5038680;28;20442;-49
2023/01/06 03:30:01;;;;;;;12.20;11.40;;;7.30;99.90;;;;;;5047814;28;20466;-45
2023/01/06 03:32:45;;;;;;;11.60;10.70;;;7.20;99.90;;;;;;5042554;28;20662;-45
2023/01/06 03:35:28;;;;;;;11.50;10.70;;;7.30;99.90;;;;;;5043304;28;20537;-44
2023/01/06 03:38:25;;;;;;;11.60;10.70;;;7.30;99.90;;;;;;5053900;28;20504;-48
2023/01/06 03:40:58;;;;;;;12.27;11.47;;;7.30;99.90;;;;;;5041809;28;20444;-46
2023/01/06 03:43:34;;;;;;;11.80;11.00;;;7.30;99.90;;;;;;5046854;28;20550;-46
2023/01/06 03:46:00;;;;;;;12.20;11.30;;;7.40;99.90;;;;;;5049830;28;21183;-46
2023/01/06 03:48:46;;;;;;;11.87;10.87;;;7.40;99.90;;;;;;5055057;28;20473;-47
2023/01/06 03:51:33;;;;;;;12.17;11.23;;;7.40;99.90;;;;;;5053623;28;20176;-46
2023/01/06 03:54:25;;;;;;;11.77;10.80;;;7.40;99.90;;;;;;5042362;28;20464;-45
2023/01/06 03:57:01;;;;;;;11.90;11.00;;;7.50;99.90;;;;;;5047550;28;20439;-49
2023/01/06 03:59:31;;;;;;;11.50;10.70;;;7.50;99.90;;;;;;5049880;28;20474;-45
2023/01/06 04:01:57;;;;;;;11.80;11.10;;;7.50;99.90;;;;;;5031872;28;20441;-45
2023/01/06 04:04:23;;;;;;;10.97;10.37;;;7.50;99.90;;;;;;5046561;28;20468;-45
2023/01/06 04:06:48;;;;;;;11.90;10.80;;;7.50;99.90;;;;;;5052049;28;20451;-43
2023/01/06 04:09:14;;;;;;;10.57;9.97;;;7.50;99.90;;;;;;5047906;28;20192;-45
2023/01/06 04:14:24;;;;;;;11.68;10.93;;;7.40;99.90;;;;;;5056443;28;20184;-45
2023/01/06 04:16:49;;;;;;;11.63;10.93;;;7.40;99.90;;;;;;5055928;28;20193;-45
2023/01/06 04:19:15;;;;;;;11.40;10.70;;;7.40;99.90;;;;;;5050694;28;20240;-44
2023/01/06 04:21:41;;;;;;;18.33;10.90;;;7.40;99.90;;;;;;5047276;28;20188;-46
2023/01/06 04:24:06;;;;;;;11.83;11.13;;;7.30;99.90;;;;;;5046877;28;20231;-49
2023/01/06 04:26:32;;;;;;;11.90;11.00;;;7.30;99.90;;;;;;5046001;28;20219;-45
2023/01/06 04:28:59;;;;;;;11.93;11.03;;;7.30;99.90;;;;;;5052991;28;20193;-45
2023/01/06 04:31:25;;;;;;;11.50;10.63;;;7.30;99.90;;;;;;5046041;28;20525;-44
2023/01/06 04:33:50;;;;;;;10.30;9.60;;;7.30;99.90;;;;;;5045928;28;20427;-46
2023/01/06 04:36:16;;;;;;;11.17;10.27;;;7.30;99.90;;;;;;5054373;28;20709;-45
2023/01/06 04:38:42;;;;;;;11.10;10.40;;;7.30;99.90;;;;;;5052053;28;20916;-47
2023/01/06 04:41:07;;;;;;;11.60;10.70;;;7.30;99.90;;;;;;5048205;28;20316;-46
2023/01/06 04:43:33;;;;;;;12.17;11.27;;;7.30;99.90;;;;;;5054744;28;20184;-50
2023/01/06 04:45:59;;;;;;;11.47;10.43;;;7.30;99.90;;;;;;5055244;28;20618;-49
2023/01/06 04:48:25;;;;;;;11.17;10.47;;;7.30;99.90;;;;;;5045796;28;20268;-48
2023/01/06 04:51:02;;;;;;;11.80;11.10;;;7.20;99.90;;;;;;5060000;28;20595;-49
2023/01/06 04:53:28;;;;;;;10.90;10.30;;;7.20;99.90;;;;;;5046248;28;20435;-47
2023/01/06 04:55:53;;;;;;;11.70;10.80;;;7.30;99.90;;;;;;5044225;28;21412;-47
2023/01/06 04:58:19;;;;;;;10.20;9.57;;;7.30;99.90;;;;;;5041291;28;20674;-44
2023/01/06 05:00:45;;;;;;;11.37;10.47;;;7.30;99.90;;;;;;5048827;28;20185;-49
2023/01/06 05:03:10;;;;;;;11.57;10.70;;;7.30;99.90;;;;;;5056925;28;20276;-49
2023/01/06 05:05:37;;;;;;;11.20;10.50;;;7.30;99.90;;;;;;5045583;28;20231;-47
2023/01/06 05:08:03;;;;;;;12.53;11.10;;;7.40;99.90;;;;;;5038861;28;20188;-47
2023/01/06 05:10:28;;;;;;;11.50;10.50;;;7.40;99.90;;;;;;5045017;28;20436;-46
2023/01/06 05:12:54;;;;;;;11.77;10.77;;;7.40;99.90;;;;;;5059964;28;20186;-47
2023/01/06 05:15:19;;;;;;;12.20;11.40;;;7.40;99.90;;;;;;5054564;28;20656;-49
2023/01/06 05:17:45;;;;;;;12.03;10.83;;;7.40;99.90;;;;;;5047426;28;20295;-46
2023/01/06 05:20:11;;;;;;;11.07;10.27;;;7.50;99.90;;;;;;5046841;28;20196;-46
2023/01/06 05:22:36;;;;;;;12.17;11.13;;;7.50;99.90;;;;;;5050690;28;21024;-46
2023/01/06 05:25:02;;;;;;;11.93;10.93;;;7.50;99.90;;;;;;5059918;28;20228;-49
2023/01/06 05:27:28;;;;;;;12.63;11.40;;;7.60;99.90;;;;;;5045819;28;20185;-48
2023/01/06 05:29:54;;;;;;;12.53;11.73;;;7.60;99.90;;;;;;5054395;28;20443;-46
2023/01/06 05:32:19;;;;;;;11.70;10.70;;;7.70;99.90;;;;;;5053087;28;20296;-45
2023/01/06 05:34:45;;;;;;;11.50;10.80;;;7.60;99.90;;;;;;5049754;28;20219;-44
2023/01/06 05:37:10;;;;;;;13.00;12.10;;;7.70;99.90;;;;;;5052281;28;20607;-45
2023/01/06 05:39:36;;;;;;;12.73;11.63;;;7.70;99.90;;;;;;5038456;28;20203;-48
2023/01/06 05:42:01;;;;;;;12.27;11.47;;;7.60;99.90;;;;;;5046466;28;20178;-49
2023/01/06 05:44:27;;;;;;;13.77;12.60;;;7.70;99.90;;;;;;5065060;28;20185;-47
2023/01/06 05:46:53;;;;;;;13.93;12.70;;;7.70;99.90;;;;;;5056146;28;20960;-46
2023/01/06 05:49:18;;;;;;;13.33;12.17;;;7.60;99.90;;;;;;5039655;28;20199;-45
2023/01/06 05:51:44;;;;;;;14.20;12.83;;;7.60;99.90;;;;;;5049683;28;20184;-46
2023/01/06 05:54:10;;;;;;;13.50;12.30;;;7.60;99.90;;;;;;5058412;28;20197;-43
2023/01/06 05:56:36;;;;;;;13.60;12.33;;;7.60;99.90;;;;;;5059368;28;20501;-46
2023/01/06 05:59:01;;;;;;;14.77;13.20;;;7.70;99.90;;;;;;5054619;28;20215;-47
2023/01/06 06:01:30;;;;;;;14.60;13.30;;;7.60;99.90;;;;;;5054065;28;20443;-47
2023/01/06 06:03:56;;;;;;;13.23;12.13;;;7.70;99.90;;;;;;5056906;28;20197;-48
2023/01/06 06:06:24;;;;;;;15.23;13.80;;;7.70;99.90;;;;;;5046857;28;20457;-49
2023/01/06 06:08:50;;;;;;;14.40;13.10;;;7.70;99.90;;;;;;5060509;28;20765;-44
2023/01/06 06:11:18;;;;;;;14.63;13.17;;;7.70;99.90;;;;;;5062593;28;20423;-45
2023/01/06 06:13:52;;;;;;;15.30;13.70;;;7.60;99.90;;;;;;5062643;28;20288;-45
2023/01/06 06:16:20;;;;;;;14.90;12.90;;;7.60;99.90;;;;;;5049420;28;20430;-48
2023/01/06 06:18:54;;;;;;;13.20;12.00;;;7.60;99.90;;;;;;5055298;28;20467;-50
2023/01/06 06:21:23;;;;;;;15.20;13.80;;;7.70;99.90;;;;;;5062741;28;20466;-48
2023/01/06 06:23:49;;;;;;;14.80;13.30;;;7.70;99.90;;;;;;5062560;28;20467;-47
2023/01/06 06:26:15;;;;;;;14.87;12.80;;;7.70;99.90;;;;;;5051241;28;20897;-47
2023/01/06 06:28:41;;;;;;;15.40;14.00;;;7.80;99.90;;;;;;5054193;28;20259;-45
2023/01/06 06:31:12;;;;;;;15.40;14.00;;;7.90;99.90;;;;;;5056576;28;20457;-45
2023/01/06 06:33:38;;;;;;;17.37;15.20;;;7.90;99.90;;;;;;5056369;28;20419;-49
2023/01/06 06:36:05;;;;;;;16.27;14.63;;;7.90;99.90;;;;;;5062215;28;20826;-47
2023/01/06 06:38:31;;;;;;;16.57;14.93;;;7.90;99.90;;;;;;5059665;28;20533;-44
2023/01/06 06:40:57;;;;;;;16.97;15.03;;;8.00;99.90;;;;;;5050563;28;20913;-47
2023/01/06 06:43:23;;;;;;;15.83;14.23;;;8.00;99.90;;;;;;5060773;28;20469;-48
2023/01/06 06:45:48;;;;;;;15.17;13.93;;;7.90;99.90;;;;;;5053740;28;20613;-49
2023/01/06 06:48:15;;;;;;;14.63;13.37;;;7.80;99.90;;;;;;5056427;28;20609;-47
2023/01/06 06:50:41;;;;;;;16.17;14.50;;;7.80;99.90;;;;;;5045028;28;20193;-47
2023/01/06 06:53:07;;;;;;;15.07;13.87;;;7.80;99.90;;;;;;5046973;28;20481;-48
2023/01/06 06:55:33;;;;;;;15.70;14.20;;;7.80;99.90;;;;;;5054950;28;20197;-46
2023/01/06 06:57:58;;;;;;;17.23;15.50;;;7.80;99.90;;;;;;5057843;28;20507;-46
2023/01/06 07:00:25;;;;;;;17.10;15.57;;;7.80;99.90;;;;;;5041510;28;20558;-50
2023/01/06 07:02:50;;;;;;;17.40;15.80;;;7.80;99.90;;;;;;5059384;28;20192;-49
2023/01/06 07:05:17;;;;;;;17.30;15.93;;;7.90;99.90;;;;;;5059475;28;20938;-49
2023/01/06 07:07:43;;;;;;;17.57;15.83;;;7.90;99.90;;;;;;5051409;28;21305;-44
2023/01/06 07:10:16;;;;;;;17.30;15.90;;;7.90;99.90;;;;;;5043870;28;21317;-51
2023/01/06 07:12:41;;;;;;;16.60;14.87;;;8.00;99.90;;;;;;5061984;28;20466;-51
2023/01/06 07:15:07;;;;;;;17.50;15.93;;;8.00;99.90;;;;;;5061625;28;20546;-48
2023/01/06 07:17:33;;;;;;;18.07;16.37;;;8.00;99.90;;;;;;5061210;28;20296;-48
2023/01/06 07:19:59;;;;;;;15.77;14.63;;;8.00;99.90;;;;;;5060404;28;20570;-47
2023/01/06 07:22:24;;;;;;;16.83;15.30;;;8.00;99.90;;;;;;5060304;28;20188;-46
2023/01/06 07:24:50;;;;;;;17.40;15.80;;;8.00;99.90;;;;;;5059606;28;20224;-52
2023/01/06 07:27:16;;;;;;;18.07;16.63;;;8.00;99.90;;;;;;5061617;28;20189;-44
2023/01/06 07:29:41;;;;;;;17.40;15.80;;;8.00;99.90;;;;;;5052396;28;20575;-46
2023/01/06 07:32:07;;;;;;;18.33;16.73;;;8.10;99.90;;;;;;5039579;28;20537;-43
2023/01/06 07:34:33;;;;;;;18.33;16.57;;;8.10;99.90;;;;;;5042407;28;20475;-47
2023/01/06 07:36:58;;;;;;;18.73;16.83;;;8.10;99.90;;;;;;5042802;28;20193;-46
2023/01/06 07:39:24;;;;;;;17.43;15.73;;;8.00;99.90;;;;;;5047710;28;20200;-47
2023/01/06 07:41:49;;;;;;;18.93;17.30;;;8.00;99.90;;;;;;5061058;28;20258;-46
2023/01/06 07:44:15;;;;;;;18.60;16.90;;;8.00;99.90;;;;;;5042600;28;20189;-47
2023/01/06 07:46:40;;;;;;;18.90;17.20;;;8.10;99.90;;;;;;5043477;28;20280;-50
2023/01/06 07:49:06;;;;;;;17.80;16.37;;;8.10;99.90;;;;;;5024259;28;20308;-44
2023/01/06 07:51:32;;;;;;;18.53;16.83;;;8.10;99.90;;;;;;5044041;28;20231;-48
2023/01/06 07:53:57;;;;;;;17.70;15.90;;;8.10;99.90;;;;;;5043619;28;20197;-49
2023/01/06 07:56:23;;;;;;;18.30;16.80;;;8.20;99.90;;;;;;5044522;28;20205;-49
2023/01/06 07:58:49;;;;;;;17.47;15.90;;;8.20;99.90;;;;;;5042371;28;20209;-44
2023/01/06 08:01:15;;;;;;;16.50;15.00;;;8.30;99.90;;;;;;5042889;28;20421;-49
2023/01/06 08:03:40;;;;;;;16.67;15.27;;;8.30;99.90;;;;;;5046617;28;20234;-45
2023/01/06 08:06:11;;;;;;;18.27;16.70;;;8.40;99.90;;;;;;5042473;28;20420;-49
2023/01/06 08:08:38;;;;;;;17.10;15.60;;;8.40;99.90;;;;;;5043694;28;20185;-44
2023/01/06 08:11:06;;;;;;;17.57;15.97;;;8.40;99.90;;;;;;5042652;28;20442;-44
2023/01/06 08:13:32;;;;;;;18.13;16.63;;;8.30;99.90;;;;;;5044562;28;20448;-46
2023/01/06 08:15:59;;;;;;;17.50;15.90;;;8.40;99.90;;;;;;5043528;28;21251;-46
2023/01/06 08:18:24;;;;;;;17.10;15.60;;;8.40;99.90;;;;;;5041562;28;20456;-48
2023/01/06 08:20:50;;;;;;;18.33;16.63;;;8.40;99.90;;;;;;5042926;28;20774;-45
2023/01/06 08:23:15;;;;;;;18.20;16.60;;;8.40;99.90;;;;;;5042118;28;20228;-47
2023/01/06 08:25:41;;;;;;;19.00;17.40;;;8.40;99.90;;;;;;5046990;28;20665;-51
2023/01/06 08:28:07;;;;;;;16.90;15.60;;;8.40;99.90;;;;;;5042915;28;20181;-45
2023/01/06 08:30:38;;;;;;;18.17;16.50;;;8.50;99.90;;;;;;5046063;28;20185;-44
2023/01/06 08:33:04;;;;;;;18.63;17.00;;;8.60;99.90;;;;;;5041278;28;20193;-46
2023/01/06 08:35:29;;;;;;;17.60;16.30;;;8.50;99.90;;;;;;5043479;28;20455;-46
2023/01/06 08:37:55;;;;;;;19.27;17.67;;;8.50;99.90;;;;;;5059293;28;20244;-46
2023/01/06 08:40:21;;;;;;;18.30;16.70;;;8.60;99.90;;;;;;5049644;28;20181;-47
2023/01/06 08:42:46;;;;;;;17.50;16.20;;;8.60;99.90;;;;;;5052739;28;20330;-46
2023/01/06 08:45:12;;;;;;;18.37;16.67;;;8.60;99.90;;;;;;5059961;28;20181;-44
2023/01/06 08:47:38;;;;;;;17.23;15.80;;;8.70;99.90;;;;;;5057731;28;20193;-46
2023/01/06 08:50:04;;;;;;;17.17;15.90;;;8.80;99.90;;;;;;5043055;28;20221;-45
2023/01/06 08:52:30;;;;;;;17.53;16.13;;;9.00;99.90;;;;;;5041410;28;20190;-45
2023/01/06 08:54:58;;;;;;;18.57;17.10;;;9.10;99.90;;;;;;5040340;28;20464;-44
2023/01/06 08:57:25;;;;;;;19.70;18.10;;;9.40;99.90;;;;;;5043266;28;20190;-48
2023/01/06 08:59:51;;;;;;;23.13;21.10;;;9.90;99.90;;;;;;5024502;28;20443;-49
2023/01/06 09:02:16;;;;;;;23.00;21.10;;;10.50;99.90;;;;;;5042126;28;20407;-44
2023/01/06 09:04:42;;;;;;;21.97;20.27;;;10.90;99.90;;;;;;5039658;28;20202;-46
2023/01/06 09:07:08;;;;;;;19.50;18.10;;;11.20;99.90;;;;;;5039426;28;20228;-48
2023/01/06 09:09:33;;;;;;;16.67;15.57;;;11.30;99.90;;;;;;5041601;28;20185;-47
2023/01/06 09:11:59;;;;;;;17.17;15.97;;;11.20;99.90;;;;;;5039656;28;20190;-47
2023/01/06 09:14:25;;;;;;;16.53;15.53;;;11.20;99.90;;;;;;5043733;28;20193;-47
2023/01/06 09:16:51;;;;;;;16.63;15.43;;;11.10;99.90;;;;;;5063302;28;21133;-44
2023/01/06 09:19:17;;;;;;;15.30;14.40;;;11.00;99.90;;;;;;5041296;28;20570;-44
2023/01/06 09:21:44;;;;;;;16.03;14.93;;;10.70;99.90;;;;;;5040722;28;20185;-45
2023/01/06 09:24:14;;;;;;;15.37;14.37;;;10.70;99.90;;;;;;5039737;28;20427;-47
2023/01/06 09:26:39;;;;;;;16.07;15.00;;;10.60;99.90;;;;;;5040258;28;20863;-43
2023/01/06 09:29:05;;;;;;;15.63;14.30;;;10.60;99.90;;;;;;5041613;28;20404;-48
2023/01/06 09:31:31;;;;;;;14.90;13.87;;;10.60;99.90;;;;;;5025292;28;20181;-50
2023/01/06 09:33:56;;;;;;;15.83;14.83;;;10.50;99.90;;;;;;5043469;28;20213;-47
2023/01/06 09:36:22;;;;;;;14.50;13.70;;;10.50;99.90;;;;;;5062886;28;20186;-45
2023/01/06 09:38:48;;;;;;;15.07;14.17;;;10.40;99.90;;;;;;5046291;28;20213;-47
2023/01/06 09:41:16;;;;;;;15.60;14.50;;;10.30;99.90;;;;;;5053276;28;20275;-45
2023/01/06 09:43:51;;;;;;;15.43;14.47;;;10.20;99.90;;;;;;5057610;28;20181;-43
2023/01/06 09:46:22;;;;;;;15.83;14.73;;;10.20;99.90;;;;;;5063599;28;20426;-47
2023/01/06 09:49:16;;;;;;;16.50;15.47;;;10.10;99.90;;;;;;5044820;28;21106;-47
2023/01/06 09:51:42;;;;;;;16.10;15.07;;;10.00;99.90;;;;;;5060063;28;20415;-47
2023/01/06 09:54:18;;;;;;;16.13;15.13;;;10.00;99.90;;;;;;5058437;28;21272;-45
2023/01/06 09:56:50;;;;;;;14.87;13.70;;;10.00;99.90;;;;;;5055946;28;20430;-44
2023/01/06 09:59:18;;;;;;;16.03;15.03;;;10.10;99.90;;;;;;5045002;28;20467;-45
2023/01/06 10:01:47;;;;;;;16.00;14.80;;;10.20;99.90;;;;;;5042844;28;20408;-47
2023/01/06 10:04:24;;;;;;;16.60;15.50;;;10.30;99.90;;;;;;5048556;28;20416;-50
2023/01/06 10:07:12;;;;;;;15.10;14.10;;;10.40;99.90;;;;;;5046593;28;20447;-46
2023/01/06 10:09:55;;;;;;;14.70;13.70;;;10.50;99.90;;;;;;5045258;28;20499;-45
2023/01/06 10:12:45;;;;;;;15.37;14.47;;;10.70;99.90;;;;;;5041949;28;20506;-51
2023/01/06 10:15:35;;;;;;;14.57;13.47;;;10.70;99.90;;;;;;5044136;28;20419;-51
2023/01/06 10:18:31;;;;;;;16.20;15.10;;;10.80;99.90;;;;;;5055618;28;20466;-47
2023/01/06 10:21:21;;;;;;;14.97;13.97;;;10.90;99.90;;;;;;5062935;28;21348;-47
2023/01/06 10:24:18;;;;;;;13.57;12.77;;;11.10;99.90;;;;;;5059330;28;20872;-51
2023/01/06 10:26:49;;;;;;;14.57;13.57;;;11.20;99.90;;;;;;5043705;28;20448;-47
2023/01/06 10:29:19;;;;;;;13.70;12.90;;;11.20;99.90;;;;;;5043911;28;20442;-48
2023/01/06 10:31:47;;;;;;;14.53;13.53;;;11.30;99.90;;;;;;5043770;28;20692;-46
2023/01/06 10:34:21;;;;;;;14.97;14.07;;;11.40;99.90;;;;;;5043570;28;20444;-48
2023/01/06 10:37:11;;;;;;;13.80;13.00;;;11.40;99.90;;;;;;5042104;28;20424;-48
2023/01/06 10:39:40;;;;;;;15.30;14.40;;;11.30;99.90;;;;;;5041731;28;20482;-47
2023/01/06 10:45:15;;;;;;;12.97;12.10;;;11.30;99.90;;;;;;5044307;28;20758;-49
2023/01/06 10:47:42;;;;;;;13.40;12.50;;;11.30;99.90;;;;;;5025227;28;20432;-48
2023/01/06 10:50:16;;;;;;;14.67;13.77;;;11.30;99.90;;;;;;5042046;28;20214;-46
2023/01/06 10:52:43;;;;;;;13.30;12.50;;;11.20;99.90;;;;;;5045995;28;20436;-47
2023/01/06 10:55:27;;;;;;;14.60;13.60;;;11.10;99.90;;;;;;5041266;28;20543;-48
2023/01/06 10:57:58;;;;;;;14.23;13.43;;;11.10;99.90;;;;;;5046066;28;20460;-49
2023/01/06 11:00:25;;;;;;;14.70;13.80;;;11.10;99.90;;;;;;5024690;28;20528;-47
2023/01/06 11:03:02;;;;;;;13.27;12.47;;;11.10;99.90;;;;;;5042627;28;20409;-46
2023/01/06 11:05:31;;;;;;;15.17;14.17;;;11.20;99.90;;;;;;5043922;28;20426;-46
2023/01/06 11:08:00;;;;;;;14.07;13.17;;;11.30;99.90;;;;;;5043052;28;20421;-51
2023/01/06 11:10:37;;;;;;;14.33;13.50;;;11.40;99.90;;;;;;5044653;28;20428;-47
2023/01/06 11:13:04;;;;;;;15.03;14.10;;;11.40;99.90;;;;;;5045280;28;20455;-46
2023/01/06 11:15:40;;;;;;;13.80;13.00;;;11.40;99.90;;;;;;5043125;28;20926;-50
2023/01/06 11:18:18;;;;;;;14.40;13.50;;;11.50;99.90;;;;;;5042094;28;20459;-51
2023/01/06 11:20:45;;;;;;;15.63;14.43;;;11.60;99.90;;;;;;5067029;28;20471;-46
2023/01/06 11:23:20;;;;;;;15.93;14.83;;;11.80;99.90;;;;;;5042945;28;20457;-51
2023/01/06 11:26:01;;;;;;;14.80;13.90;;;11.80;99.90;;;;;;5043036;28;20427;-50
2023/01/06 11:28:27;;;;;;;13.83;13.03;;;11.90;99.90;;;;;;5043625;28;20412;-46
2023/01/06 11:31:01;;;;;;;12.87;12.17;;;11.90;99.90;;;;;;5041212;28;21025;-45
2023/01/06 11:33:30;;;;;;;11.77;10.97;;;12.00;99.90;;;;;;5042474;28;20417;-50
2023/01/06 11:35:57;;;;;;;11.40;10.90;;;12.10;99.90;;;;;;5041960;28;20755;-47
2023/01/06 11:38:23;;;;;;;10.10;9.70;;;12.30;99.90;;;;;;5048244;28;20461;-48
2023/01/06 11:40:51;;;;;;;9.20;8.80;;;12.50;99.90;;;;;;5050321;28;20464;-49
2023/01/06 11:43:30;;;;;;;9.93;9.53;;;12.50;99.90;;;;;;5059708;28;20432;-49
2023/01/06 11:46:02;;;;;;;10.23;9.83;;;12.60;99.90;;;;;;5052709;28;20674;-48
2023/01/06 11:48:37;;;;;;;10.83;10.43;;;12.60;99.90;;;;;;5058998;28;20424;-49
2023/01/06 11:51:07;;;;;;;10.90;10.40;;;12.60;99.90;;;;;;5060162;28;20419;-46
2023/01/06 11:53:33;;;;;;;10.40;10.00;;;12.70;99.90;;;;;;5050561;28;20905;-45
2023/01/06 11:56:01;;;;;;;10.57;10.17;;;12.80;99.90;;;;;;5045597;28;20438;-46
2023/01/06 11:58:51;;;;;;;10.87;10.37;;;12.80;99.90;;;;;;5051471;28;20426;-47
2023/01/06 12:01:28;;;;;;;10.27;9.87;;;13.00;99.90;;;;;;5057874;28;21065;-46
2023/01/06 12:04:06;;;;;;;10.07;9.67;;;12.90;99.90;;;;;;5056510;28;20622;-45
2023/01/06 12:06:39;;;;;;;10.37;9.97;;;12.90;99.90;;;;;;5051489;28;20851;-44
2023/01/06 12:09:32;;;;;;;9.73;9.33;;;12.90;99.90;;;;;;5048158;28;20465;-49
2023/01/06 12:12:06;;;;;;;10.97;10.50;;;13.00;99.90;;;;;;5053722;28;20768;-45
2023/01/06 12:14:37;;;;;;;10.70;10.30;;;13.00;99.90;;;;;;5051092;28;20677;-49
2023/01/06 12:17:27;;;;;;;10.10;9.70;;;13.00;99.90;;;;;;5059595;28;20442;-48
2023/01/06 12:20:13;;;;;;;10.57;10.17;;;13.00;99.90;;;;;;5059575;28;20414;-48
2023/01/06 12:23:14;;;;;;;10.77;10.37;;;13.00;99.90;;;;;;5058254;28;20837;-47
2023/01/06 12:25:47;;;;;;;11.20;10.70;;;13.10;99.90;;;;;;5049411;28;21124;-47
2023/01/06 12:28:16;;;;;;;11.00;10.50;;;13.00;99.90;;;;;;5058964;28;20496;-49
2023/01/06 12:31:05;;;;;;;10.80;10.30;;;12.90;99.90;;;;;;5059097;28;20418;-47
2023/01/06 12:33:39;;;;;;;11.57;10.97;;;12.80;99.90;;;;;;5055671;28;21286;-48
2023/01/06 12:37:00;;;;;;;11.73;11.23;;;12.60;99.90;;;;;;5044135;28;20427;-46
2023/01/06 12:39:57;;;;;;;11.10;10.50;;;12.40;99.90;;;;;;5010828;28;20770;-47
2023/01/06 12:42:42;;;;;;;11.50;11.00;;;12.30;99.90;;;;;;5052869;28;20933;-46
2023/01/06 12:45:54;;;;;;;10.43;10.00;;;12.10;99.90;;;;;;5059925;28;20988;-48
2023/01/06 12:48:51;;;;;;;11.50;10.90;;;12.10;99.90;;;;;;4988135;28;20439;-48
2023/01/06 12:51:19;;;;;;;11.00;10.50;;;12.00;99.90;;;;;;4982263;28;20797;-46
2023/01/06 12:53:55;;;;;;;11.43;10.93;;;12.00;99.90;;;;;;4994930;28;21324;-49
2023/01/06 12:56:36;;;;;;;10.70;10.30;;;11.80;99.90;;;;;;4996976;28;20821;-49
2023/01/06 12:59:15;;;;;;;11.07;10.57;;;11.80;99.90;;;;;;4987070;28;20505;-45